createdAt,value
2022-10-23T00:01:41.709Z,11.55
2022-10-23T00:04:15.675Z,11.70
2022-10-23T00:06:42.981Z,11.55
2022-10-23T00:09:12.113Z,11.85
2022-10-23T00:11:39.151Z,10.90
2022-10-23T00:14:07.053Z,12.68
2022-10-23T00:16:34.350Z,11.20
2022-10-23T00:19:00.748Z,11.77
2022-10-23T00:21:27.536Z,10.95
2022-10-23T00:23:54.187Z,12.50
2022-10-23T00:26:20.623Z,18.05
2022-10-23T00:28:49.618Z,12.63
2022-10-23T00:31:16.645Z,13.55
2022-10-23T00:33:44.034Z,17.45
2022-10-23T00:36:13.726Z,15.25
2022-10-23T00:38:40.473Z,12.38
2022-10-23T00:41:08.125Z,14.55
2022-10-23T00:43:35.925Z,13.57
2022-10-23T00:46:02.327Z,12.88
2022-10-23T00:48:29.241Z,13.35
2022-10-23T00:50:56.234Z,13.98
2022-10-23T00:53:23.053Z,14.35
2022-10-23T00:55:51.954Z,15.32
2022-10-23T00:58:19.920Z,14.15
2022-10-23T01:00:54.569Z,16.05
2022-10-23T01:03:25.272Z,14.82
2022-10-23T01:05:54.438Z,16.52
2022-10-23T01:08:50.343Z,21.85
2022-10-23T01:11:44.700Z,20.30
2022-10-23T01:14:32.438Z,23.77
2022-10-23T01:17:25.530Z,20.52
2022-10-23T01:20:27.895Z,12.55
2022-10-23T01:22:57.133Z,14.88
2022-10-23T01:25:58.541Z,12.63
2022-10-23T01:28:31.141Z,15.82
2022-10-23T01:31:01.812Z,13.40
2022-10-23T01:33:37.386Z,11.95
2022-10-23T01:36:09.859Z,12.43
2022-10-23T01:38:59.936Z,14.00
2022-10-23T01:41:36.410Z,12.65
2022-10-23T01:44:11.680Z,11.70
2022-10-23T01:46:39.287Z,9.90
2022-10-23T01:49:09.914Z,9.75
2022-10-23T01:51:38.951Z,9.75
2022-10-23T01:54:08.944Z,10.10
2022-10-23T01:56:39.448Z,11.43
2022-10-23T01:59:10.390Z,9.63
2022-10-23T02:01:39.930Z,9.95
2022-10-23T02:04:09.490Z,11.25
2022-10-23T02:06:35.799Z,12.38
2022-10-23T02:09:02.243Z,12.55
2022-10-23T02:11:31.422Z,13.40
2022-10-23T02:14:03.470Z,12.60
2022-10-23T02:16:56.805Z,22.20
2022-10-23T02:19:43.278Z,24.38
2022-10-23T02:22:19.034Z,28.92
2022-10-23T02:25:20.121Z,7.72
2022-10-23T02:27:50.650Z,6.63
2022-10-23T02:30:19.012Z,6.68
2022-10-23T02:32:49.907Z,7.93
2022-10-23T02:35:18.189Z,9.73
2022-10-23T02:37:52.623Z,10.18
2022-10-23T02:40:19.153Z,6.00
2022-10-23T02:42:55.270Z,7.75
2022-10-23T02:45:35.819Z,7.93
2022-10-23T02:48:12.457Z,5.43
2022-10-23T02:50:50.754Z,6.03
2022-10-23T02:53:43.234Z,6.50
2022-10-23T02:56:21.412Z,7.53
2022-10-23T02:59:06.658Z,7.60
2022-10-23T03:01:46.159Z,5.47
2022-10-23T03:04:15.735Z,5.82
2022-10-23T03:06:42.543Z,5.75
2022-10-23T03:09:10.048Z,11.90
2022-10-23T03:11:36.674Z,9.60
2022-10-23T03:14:03.124Z,18.98
2022-10-23T03:16:29.754Z,9.13
2022-10-23T03:18:56.249Z,8.82
2022-10-23T03:21:22.645Z,8.98
2022-10-23T03:23:48.934Z,13.38
2022-10-23T03:28:42.057Z,10.77
2022-10-23T03:31:08.383Z,11.02
2022-10-23T03:33:34.715Z,17.75
2022-10-23T03:36:01.043Z,14.68
2022-10-23T03:38:27.377Z,15.73
2022-10-23T03:40:53.701Z,11.13
2022-10-23T03:43:20.071Z,8.55
2022-10-23T03:45:46.428Z,9.07
2022-10-23T03:48:12.802Z,10.73
2022-10-23T03:50:39.083Z,12.02
2022-10-23T03:55:31.660Z,8.30
2022-10-23T03:57:58.070Z,8.40
2022-10-23T04:00:24.394Z,13.73
2022-10-23T04:02:50.759Z,8.75
2022-10-23T04:05:17.132Z,12.43
2022-10-23T04:07:43.428Z,7.43
2022-10-23T04:10:09.895Z,6.95
2022-10-23T04:12:36.246Z,7.10
2022-10-23T04:15:02.546Z,6.47
2022-10-23T04:20:00.126Z,9.90
2022-10-23T04:22:28.421Z,12.40
2022-10-23T04:24:55.276Z,12.55
2022-10-23T04:27:21.663Z,13.13
2022-10-23T04:29:47.986Z,10.68
2022-10-23T04:32:14.388Z,10.65
2022-10-23T04:34:40.766Z,11.88
2022-10-23T04:37:07.080Z,11.77
2022-10-23T04:39:33.456Z,11.98
2022-10-23T04:41:59.804Z,12.32
2022-10-23T04:44:26.141Z,13.07
2022-10-23T04:46:52.465Z,12.13
2022-10-23T04:49:18.778Z,12.02
2022-10-23T04:51:45.119Z,12.57
2022-10-23T04:54:11.445Z,13.73
2022-10-23T04:56:37.806Z,12.15
2022-10-23T05:01:35.627Z,13.20
2022-10-23T05:04:01.997Z,12.90
2022-10-23T05:06:28.356Z,13.25
2022-10-23T05:08:54.670Z,12.27
2022-10-23T05:11:21.047Z,11.13
2022-10-23T05:13:47.721Z,12.63
2022-10-23T05:16:28.805Z,12.13
2022-10-23T05:18:55.561Z,11.90
2022-10-23T05:21:26.753Z,12.32
2022-10-23T05:23:54.427Z,12.02
2022-10-23T05:26:20.838Z,11.35
2022-10-23T05:28:47.156Z,11.50
2022-10-23T05:31:13.929Z,10.98
2022-10-23T05:33:40.434Z,11.07
2022-10-23T05:36:08.670Z,10.60
2022-10-23T05:38:35.540Z,10.43
2022-10-23T05:41:02.086Z,9.30
2022-10-23T05:43:28.455Z,10.75
2022-10-23T05:45:54.749Z,10.38
2022-10-23T05:48:34.413Z,9.30
2022-10-23T05:51:10.460Z,10.13
2022-10-23T05:53:40.100Z,10.55
2022-10-23T05:56:09.474Z,11.05
2022-10-23T05:58:35.914Z,11.05
2022-10-23T06:01:10.231Z,11.38
2022-10-23T06:03:37.975Z,11.52
2022-10-23T06:06:05.171Z,11.48
2022-10-23T06:08:32.759Z,10.57
2022-10-23T06:11:04.566Z,11.45
2022-10-23T06:13:30.865Z,12.05
2022-10-23T06:15:57.175Z,11.63
2022-10-23T06:18:23.530Z,11.15
2022-10-23T06:20:49.842Z,11.55
2022-10-23T06:23:16.155Z,11.65
2022-10-23T06:25:42.495Z,10.68
2022-10-23T06:28:08.843Z,10.27
2022-10-23T06:33:09.689Z,11.98
2022-10-23T06:35:36.520Z,11.15
2022-10-23T06:38:02.873Z,11.63
2022-10-23T06:40:29.294Z,11.95
2022-10-23T06:42:56.517Z,12.10
2022-10-23T06:45:22.903Z,11.10
2022-10-23T06:47:52.786Z,10.90
2022-10-23T06:50:19.103Z,10.63
2022-10-23T06:52:47.618Z,10.07
2022-10-23T06:55:14.875Z,10.50
2022-10-23T06:57:41.679Z,10.38
2022-10-23T07:00:09.005Z,11.00
2022-10-23T07:02:35.719Z,10.50
2022-10-23T07:05:02.161Z,10.32
2022-10-23T07:07:32.074Z,9.82
2022-10-23T07:09:58.466Z,10.27
2022-10-23T07:12:24.900Z,9.70
2022-10-23T07:14:51.208Z,9.60
2022-10-23T07:17:17.545Z,9.05
2022-10-23T07:19:43.876Z,8.75
2022-10-23T07:22:13.308Z,10.05
2022-10-23T07:24:42.136Z,9.07
2022-10-23T07:27:08.444Z,8.63
2022-10-23T07:29:34.773Z,8.73
2022-10-23T07:32:01.137Z,8.57
2022-10-23T07:34:27.735Z,8.73
2022-10-23T07:36:54.075Z,8.07
2022-10-23T07:39:21.085Z,8.32
2022-10-23T07:41:47.371Z,7.60
2022-10-23T07:44:13.766Z,7.05
2022-10-23T07:46:40.252Z,8.10
2022-10-23T07:49:06.666Z,8.25
2022-10-23T07:51:33.047Z,7.75
2022-10-23T07:53:59.359Z,8.27
2022-10-23T07:56:27.891Z,7.70
2022-10-23T07:58:54.197Z,7.80
2022-10-23T08:01:27.706Z,7.40
2022-10-23T08:03:54.033Z,7.60
2022-10-23T08:06:20.357Z,7.40
2022-10-23T08:08:46.660Z,7.20
2022-10-23T08:11:14.855Z,6.57
2022-10-23T08:13:41.510Z,7.32
2022-10-23T08:16:08.055Z,6.55
2022-10-23T08:18:34.425Z,7.03
2022-10-23T08:21:03.427Z,6.22
2022-10-23T08:23:31.294Z,6.80
2022-10-23T08:25:59.922Z,6.22
2022-10-23T08:28:27.782Z,6.53
2022-10-23T08:30:55.083Z,6.32
2022-10-23T08:33:21.944Z,6.68
2022-10-23T08:35:48.538Z,6.18
2022-10-23T08:38:14.962Z,6.93
2022-10-23T08:40:46.725Z,6.47
2022-10-23T08:43:27.252Z,6.20
2022-10-23T08:45:59.995Z,7.70
2022-10-23T08:48:30.193Z,6.05
2022-10-23T08:51:04.284Z,6.00
2022-10-23T08:53:40.074Z,6.85
2022-10-23T08:56:26.116Z,6.40
2022-10-23T08:59:07.061Z,6.20
2022-10-23T09:01:39.992Z,5.88
2022-10-23T09:04:06.711Z,5.80
2022-10-23T09:06:58.687Z,5.72
2022-10-23T09:09:49.739Z,5.72
2022-10-23T09:12:20.374Z,5.75
2022-10-23T09:15:24.014Z,6.10
2022-10-23T09:17:57.469Z,5.80
2022-10-23T09:20:29.011Z,5.88
2022-10-23T09:23:07.997Z,6.28
2022-10-23T09:25:38.157Z,5.40
2022-10-23T09:28:05.770Z,5.90
2022-10-23T09:30:43.184Z,4.55
2022-10-23T09:33:21.224Z,5.47
2022-10-23T09:38:36.315Z,4.82
2022-10-23T09:41:29.553Z,5.13
2022-10-23T09:44:07.805Z,5.18
2022-10-23T09:49:31.731Z,5.53
2022-10-23T09:52:22.614Z,5.00
2022-10-23T09:54:53.103Z,5.57
2022-10-23T09:57:36.849Z,5.57
2022-10-23T10:00:23.060Z,4.60
2022-10-23T10:03:04.798Z,5.00
2022-10-23T10:05:34.167Z,4.75
2022-10-23T10:08:03.487Z,5.05
2022-10-23T10:10:35.850Z,5.18
2022-10-23T10:13:31.114Z,4.82
2022-10-23T10:16:02.652Z,4.68
2022-10-23T10:18:43.256Z,4.30
2022-10-23T10:21:27.674Z,4.30
2022-10-23T10:24:05.766Z,5.20
2022-10-23T10:29:26.096Z,4.20
2022-10-23T10:31:53.230Z,4.68
2022-10-23T10:34:58.904Z,4.68
2022-10-23T10:37:34.273Z,4.40
2022-10-23T10:40:13.917Z,4.20
2022-10-23T10:43:10.950Z,4.35
2022-10-23T10:45:53.162Z,5.18
2022-10-23T10:48:41.265Z,4.00
2022-10-23T10:51:29.757Z,4.13
2022-10-23T10:54:26.520Z,4.25
2022-10-23T10:56:53.005Z,4.03
2022-10-23T10:59:31.868Z,4.65
2022-10-23T11:02:20.609Z,4.05
2022-10-23T11:04:57.116Z,4.05
2022-10-23T11:07:29.315Z,4.07
2022-10-23T11:10:00.169Z,3.90
2022-10-23T11:12:28.010Z,4.00
2022-10-23T11:14:55.126Z,4.35
2022-10-23T11:17:27.215Z,3.78
2022-10-23T11:20:05.718Z,3.67
2022-10-23T11:22:42.905Z,3.72
2022-10-23T11:25:40.049Z,4.07
2022-10-23T11:28:29.402Z,3.08
2022-10-23T11:31:11.675Z,3.72
2022-10-23T11:33:59.224Z,3.60
2022-10-23T11:36:39.302Z,3.28
2022-10-23T11:39:20.107Z,3.17
2022-10-23T11:42:09.495Z,4.00
2022-10-23T11:44:45.080Z,3.53
2022-10-23T11:47:39.734Z,3.25
2022-10-23T11:50:06.717Z,3.42
2022-10-23T11:53:09.237Z,3.13
2022-10-23T11:55:39.840Z,3.45
2022-10-23T11:58:17.378Z,3.05
2022-10-23T12:01:04.640Z,3.20
2022-10-23T12:03:50.970Z,2.78
2022-10-23T12:06:28.331Z,2.92
2022-10-23T12:08:59.814Z,3.20
2022-10-23T12:11:41.711Z,3.28
2022-10-23T12:14:28.450Z,2.92
2022-10-23T12:16:54.818Z,3.35
2022-10-23T12:19:24.108Z,3.55
2022-10-23T12:21:52.624Z,3.08
2022-10-23T12:24:48.279Z,2.83
2022-10-23T12:27:18.347Z,2.88
2022-10-23T12:30:12.421Z,3.08
2022-10-23T12:33:01.574Z,3.00
2022-10-23T12:35:59.894Z,2.88
2022-10-23T12:38:32.451Z,3.17
2022-10-23T12:41:28.680Z,2.72
2022-10-23T12:44:04.388Z,3.20
2022-10-23T12:46:35.379Z,3.03
2022-10-23T12:49:12.714Z,3.05
2022-10-23T12:51:39.079Z,2.97
2022-10-23T12:54:18.114Z,3.10
2022-10-23T12:56:45.022Z,2.58
2022-10-23T12:59:27.781Z,2.63
2022-10-23T13:01:55.502Z,2.53
2022-10-23T13:04:30.160Z,3.28
2022-10-23T13:07:06.568Z,2.75
2022-10-23T13:09:44.565Z,2.90
2022-10-23T13:12:27.955Z,3.00
2022-10-23T13:15:13.547Z,2.58
2022-10-23T13:17:48.338Z,2.58
2022-10-23T13:20:17.747Z,2.67
2022-10-23T13:22:47.127Z,2.58
2022-10-23T13:25:40.210Z,2.65
2022-10-23T13:28:27.886Z,2.30
2022-10-23T13:30:59.060Z,2.42
2022-10-23T13:33:33.447Z,3.15
2022-10-23T13:36:03.056Z,3.13
2022-10-23T13:38:38.012Z,2.50
2022-10-23T13:41:06.265Z,3.13
2022-10-23T13:43:33.855Z,2.65
2022-10-23T13:46:01.217Z,2.60
2022-10-23T13:48:27.682Z,2.65
2022-10-23T13:50:54.466Z,2.83
2022-10-23T13:53:20.824Z,3.00
2022-10-23T13:55:52.497Z,3.03
2022-10-23T13:58:21.226Z,3.40
2022-10-23T14:00:49.569Z,3.85
2022-10-23T14:03:15.877Z,3.47
2022-10-23T14:05:42.178Z,3.42
2022-10-23T14:08:08.528Z,3.20
2022-10-23T14:10:34.849Z,3.58
2022-10-23T14:13:01.169Z,3.30
2022-10-23T14:15:27.665Z,3.60
2022-10-23T14:17:58.939Z,3.40
2022-10-23T14:20:27.913Z,3.50
2022-10-23T14:22:54.364Z,4.30
2022-10-23T14:25:22.157Z,4.75
2022-10-23T14:27:48.836Z,4.68
2022-10-23T14:30:15.518Z,5.47
2022-10-23T14:32:42.297Z,4.50
2022-10-23T14:35:09.045Z,3.50
2022-10-23T14:37:35.436Z,3.38
2022-10-23T14:40:01.738Z,2.90
2022-10-23T14:42:33.064Z,2.90
2022-10-23T14:45:01.296Z,2.72
2022-10-23T14:47:27.655Z,2.50
2022-10-23T14:49:54.007Z,2.55
2022-10-23T14:52:20.324Z,2.40
2022-10-23T14:54:46.644Z,2.58
2022-10-23T14:57:12.940Z,2.63
2022-10-23T14:59:39.237Z,2.22
2022-10-23T15:02:05.564Z,2.28
2022-10-23T15:04:31.950Z,2.53
2022-10-23T15:06:58.242Z,2.40
2022-10-23T15:09:24.833Z,2.33
2022-10-23T15:11:51.118Z,2.55
2022-10-23T15:14:17.427Z,2.50
2022-10-23T15:16:43.778Z,2.50
2022-10-23T15:19:15.286Z,2.45
2022-10-23T15:21:44.760Z,2.60
2022-10-23T15:24:11.070Z,2.95
2022-10-23T15:26:37.401Z,2.30
2022-10-23T15:29:03.974Z,2.47
2022-10-23T15:31:30.249Z,2.10
2022-10-23T15:34:00.063Z,2.45
2022-10-23T15:36:26.931Z,2.30
2022-10-23T15:38:53.313Z,2.65
2022-10-23T15:41:28.097Z,2.28
2022-10-23T15:43:54.719Z,2.15
2022-10-23T15:46:21.045Z,2.45
2022-10-23T15:48:47.376Z,2.50
2022-10-23T15:51:13.675Z,2.50
2022-10-23T15:53:40.174Z,2.30
2022-10-23T15:56:06.564Z,2.13
2022-10-23T15:58:33.049Z,2.50
2022-10-23T16:01:02.157Z,2.22
2022-10-23T16:03:28.584Z,2.30
2022-10-23T16:05:54.941Z,2.28
2022-10-23T16:08:21.252Z,2.35
2022-10-23T16:10:47.586Z,2.50
2022-10-23T16:13:13.898Z,2.05
2022-10-23T16:15:40.323Z,2.40
2022-10-23T16:18:06.631Z,2.50
2022-10-23T16:20:32.939Z,2.50
2022-10-23T16:22:59.245Z,2.08
2022-10-23T16:25:25.812Z,2.20
2022-10-23T16:27:52.156Z,2.50
2022-10-23T16:30:18.559Z,2.30
2022-10-23T16:32:44.865Z,2.30
2022-10-23T16:35:13.089Z,3.25
2022-10-23T16:37:39.656Z,2.60
2022-10-23T16:40:06.672Z,2.20
2022-10-23T16:42:32.999Z,2.50
2022-10-23T16:44:59.327Z,2.78
2022-10-23T16:47:25.692Z,2.70
2022-10-23T16:49:52.004Z,2.47
2022-10-23T16:52:18.334Z,3.00
2022-10-23T16:54:44.676Z,2.88
2022-10-23T16:57:10.978Z,2.78
2022-10-23T16:59:37.286Z,2.78
2022-10-23T17:02:04.101Z,2.78
2022-10-23T17:04:30.594Z,2.63
2022-10-23T17:06:56.910Z,2.90
2022-10-23T17:09:23.265Z,2.97
2022-10-23T17:11:49.578Z,2.83
2022-10-23T17:14:19.431Z,3.15
2022-10-23T17:16:51.820Z,2.78
2022-10-23T17:22:08.079Z,2.85
2022-10-23T17:24:34.378Z,2.80
2022-10-23T17:27:00.688Z,3.05
2022-10-23T17:29:27.057Z,3.53
2022-10-23T17:31:53.380Z,2.70
2022-10-23T17:34:22.278Z,2.75
2022-10-23T17:36:52.854Z,2.50
2022-10-23T17:39:23.046Z,3.00
2022-10-23T17:41:49.514Z,2.90
2022-10-23T17:44:15.979Z,3.10
2022-10-23T17:46:42.324Z,2.90
2022-10-23T17:49:10.234Z,2.97
2022-10-23T17:51:38.267Z,2.60
2022-10-23T17:54:07.884Z,3.13
2022-10-23T17:56:35.345Z,2.45
2022-10-23T17:59:08.740Z,3.05
2022-10-23T18:01:35.613Z,2.78
2022-10-23T18:04:04.748Z,2.92
2022-10-23T18:06:35.061Z,2.80
2022-10-23T18:09:04.171Z,3.42
2022-10-23T18:11:36.415Z,3.25
2022-10-23T18:14:04.498Z,2.60
2022-10-23T18:16:30.843Z,2.40
2022-10-23T18:18:59.123Z,2.78
2022-10-23T18:21:25.450Z,2.95
2022-10-23T18:23:52.547Z,2.75
2022-10-23T18:26:25.723Z,2.40
2022-10-23T18:28:54.457Z,2.50
2022-10-23T18:31:21.389Z,2.58
2022-10-23T18:33:47.756Z,3.00
2022-10-23T18:36:23.015Z,2.60
2022-10-23T18:38:50.028Z,2.83
2022-10-23T18:41:17.736Z,2.60
2022-10-23T18:43:44.744Z,2.85
2022-10-23T18:46:13.302Z,2.53
2022-10-23T18:48:40.156Z,2.60
2022-10-23T18:51:15.598Z,2.97
2022-10-23T18:53:43.142Z,2.88
2022-10-23T18:56:09.457Z,2.67
2022-10-23T18:58:35.753Z,2.55
2022-10-23T19:01:02.237Z,2.40
2022-10-23T19:03:28.613Z,2.95
2022-10-23T19:05:54.957Z,2.42
2022-10-23T19:08:21.267Z,2.60
2022-10-23T19:10:48.123Z,2.60
2022-10-23T19:13:14.455Z,2.65
2022-10-23T19:15:40.854Z,2.58
2022-10-23T19:18:07.995Z,2.70
2022-10-23T19:20:35.355Z,2.70
2022-10-23T19:23:02.424Z,2.47
2022-10-23T19:25:32.941Z,2.30
2022-10-23T19:28:01.781Z,2.40
2022-10-23T19:30:29.005Z,2.67
2022-10-23T19:32:55.335Z,2.22
2022-10-23T19:35:22.587Z,2.17
2022-10-23T19:37:49.261Z,2.80
2022-10-23T19:40:15.713Z,2.60
2022-10-23T19:42:42.974Z,2.88
2022-10-23T19:45:12.415Z,2.65
2022-10-23T19:47:39.258Z,2.63
2022-10-23T19:50:06.815Z,2.55
2022-10-23T19:52:33.354Z,3.10
2022-10-23T19:54:59.954Z,2.53
2022-10-23T19:57:26.329Z,3.40
2022-10-23T19:59:52.673Z,3.38
2022-10-23T20:02:20.353Z,3.35
2022-10-23T20:04:47.036Z,3.45
2022-10-23T20:07:13.676Z,3.10
2022-10-23T20:09:40.422Z,2.80
2022-10-23T20:12:06.734Z,3.85
2022-10-23T20:14:33.354Z,2.70
2022-10-23T20:16:59.826Z,3.08
2022-10-23T20:19:26.130Z,2.90
2022-10-23T20:21:52.490Z,2.67
2022-10-23T20:24:19.604Z,3.00
2022-10-23T20:26:50.099Z,3.10
2022-10-23T20:29:16.451Z,3.38
2022-10-23T20:31:43.297Z,3.03
2022-10-23T20:34:10.711Z,2.85
2022-10-23T20:36:42.382Z,2.78
2022-10-23T20:39:18.910Z,3.10
2022-10-23T20:41:45.782Z,2.75
2022-10-23T20:46:48.692Z,2.80
2022-10-23T20:49:15.424Z,2.65
2022-10-23T20:51:44.025Z,2.92
2022-10-23T20:54:11.071Z,2.88
2022-10-23T20:56:38.901Z,3.00
2022-10-23T20:59:12.606Z,2.92
2022-10-23T21:01:41.008Z,2.40
2022-10-23T21:04:07.955Z,2.80
2022-10-23T21:06:46.153Z,2.70
2022-10-23T21:09:20.910Z,2.70
2022-10-23T21:11:47.204Z,3.38
2022-10-23T21:14:13.559Z,3.10
2022-10-23T21:16:41.778Z,2.67
2022-10-23T21:19:08.783Z,2.35
2022-10-23T21:21:35.627Z,2.55
2022-10-23T21:24:06.509Z,2.30
2022-10-23T21:26:32.980Z,2.10
2022-10-23T21:29:17.408Z,2.17
2022-10-23T21:31:44.713Z,1.90
2022-10-23T21:36:54.120Z,1.70
2022-10-23T21:39:28.592Z,1.75
2022-10-23T21:41:54.943Z,1.50
2022-10-23T21:44:21.247Z,1.60
2022-10-23T21:46:47.591Z,1.70
2022-10-23T21:49:13.936Z,1.75
2022-10-23T21:51:40.309Z,1.50
2022-10-23T21:54:11.276Z,1.73
2022-10-23T21:56:43.173Z,1.65
2022-10-23T21:59:12.327Z,1.70
2022-10-23T22:01:43.921Z,1.35
2022-10-23T22:04:15.248Z,1.40
2022-10-23T22:06:42.903Z,1.73
2022-10-23T22:09:11.835Z,1.70
2022-10-23T22:11:38.170Z,1.60
2022-10-23T22:14:04.676Z,1.48
2022-10-23T22:16:31.147Z,1.65
2022-10-23T22:18:57.962Z,1.25
2022-10-23T22:21:27.759Z,1.35
2022-10-23T22:23:56.713Z,1.40
2022-10-23T22:26:25.162Z,1.27
2022-10-23T22:28:53.761Z,1.50
2022-10-23T22:31:26.103Z,1.35
2022-10-23T22:33:53.620Z,1.40
2022-10-23T22:36:20.977Z,1.23
2022-10-23T22:38:47.539Z,1.35
2022-10-23T22:41:14.044Z,1.60
2022-10-23T22:43:40.365Z,1.55
2022-10-23T22:46:08.008Z,1.30
2022-10-23T22:48:35.763Z,1.30
2022-10-23T22:51:03.005Z,1.48
2022-10-23T22:53:29.910Z,1.40
2022-10-23T22:55:56.544Z,1.65
2022-10-23T22:58:24.463Z,1.70
2022-10-23T23:00:53.513Z,1.88
2022-10-23T23:03:19.876Z,1.95
2022-10-23T23:05:47.841Z,2.10
2022-10-23T23:08:15.111Z,2.08
2022-10-23T23:10:41.434Z,2.10
2022-10-23T23:13:08.012Z,2.00
2022-10-23T23:15:39.409Z,2.05
2022-10-23T23:18:05.719Z,1.80
2022-10-23T23:20:32.041Z,1.50
2022-10-23T23:22:58.325Z,1.70
2022-10-23T23:25:24.693Z,1.50
2022-10-23T23:27:51.022Z,1.40
2022-10-23T23:30:17.448Z,1.50
2022-10-23T23:32:47.308Z,1.45
2022-10-23T23:35:13.905Z,1.50
2022-10-23T23:37:40.258Z,1.40
2022-10-23T23:40:07.177Z,1.52
2022-10-23T23:42:33.516Z,1.70
2022-10-23T23:45:10.073Z,1.73
2022-10-23T23:47:40.466Z,1.90
2022-10-23T23:50:08.550Z,1.85
2022-10-23T23:52:35.154Z,1.73
2022-10-23T23:55:01.510Z,1.80
2022-10-23T23:57:27.928Z,2.30
2022-10-23T23:59:54.249Z,2.15
